createdAt,value
2023-05-23T00:01:24.927Z,21.42
2023-05-23T00:03:52.829Z,20.75
2023-05-23T00:06:22.465Z,22.17
2023-05-23T00:08:50.558Z,23.25
2023-05-23T00:11:19.098Z,21.52
2023-05-23T00:13:46.292Z,25.05
2023-05-23T00:16:12.948Z,22.58
2023-05-23T00:18:46.007Z,22.65
2023-05-23T00:21:16.131Z,24.88
2023-05-23T00:23:43.276Z,22.77
2023-05-23T00:26:10.318Z,28.30
2023-05-23T00:28:39.329Z,20.65
2023-05-23T00:31:06.127Z,18.77
2023-05-23T00:33:34.400Z,21.17
2023-05-23T00:36:02.208Z,21.85
2023-05-23T00:38:28.873Z,22.35
2023-05-23T00:40:55.693Z,25.02
2023-05-23T00:43:22.892Z,24.02
2023-05-23T00:45:50.036Z,22.38
2023-05-23T00:48:17.194Z,21.15
2023-05-23T00:50:44.119Z,25.35
2023-05-23T00:53:10.920Z,21.95
2023-05-23T00:55:39.670Z,25.83
2023-05-23T00:58:06.796Z,22.23
2023-05-23T01:00:34.822Z,26.48
2023-05-23T01:03:01.898Z,24.27
2023-05-23T01:05:28.676Z,22.67
2023-05-23T01:07:55.784Z,25.55
2023-05-23T01:10:26.893Z,19.30
2023-05-23T01:13:02.779Z,19.00
2023-05-23T01:18:04.514Z,16.38
2023-05-23T01:20:45.415Z,16.90
2023-05-23T01:23:25.737Z,13.38
2023-05-23T01:31:07.982Z,15.23
2023-05-23T01:33:35.204Z,11.75
2023-05-23T01:38:30.801Z,12.00
2023-05-23T01:40:57.635Z,9.60
2023-05-23T01:43:25.156Z,14.57
2023-05-23T01:45:54.131Z,10.00
2023-05-23T01:48:21.538Z,16.33
2023-05-23T01:50:48.271Z,10.98
2023-05-23T01:53:17.545Z,9.23
2023-05-23T01:55:45.020Z,10.85
2023-05-23T01:58:11.777Z,9.20
2023-05-23T02:00:38.570Z,12.85
2023-05-23T02:03:06.226Z,14.18
2023-05-23T02:05:33.168Z,12.77
2023-05-23T02:08:01.653Z,9.35
2023-05-23T02:10:29.021Z,13.40
2023-05-23T02:12:55.791Z,10.55
2023-05-23T02:15:22.531Z,11.63
2023-05-23T02:17:49.263Z,11.05
2023-05-23T02:20:15.992Z,10.05
2023-05-23T02:22:42.685Z,8.25
2023-05-23T02:25:09.385Z,14.18
2023-05-23T02:27:36.194Z,6.20
2023-05-23T02:30:02.990Z,10.02
2023-05-23T02:32:30.445Z,11.65
2023-05-23T02:34:57.736Z,14.27
2023-05-23T02:37:24.549Z,12.07
2023-05-23T02:39:51.209Z,9.40
2023-05-23T02:44:43.654Z,16.98
2023-05-23T02:47:11.009Z,13.95
2023-05-23T02:49:37.700Z,10.90
2023-05-23T02:52:07.566Z,10.15
2023-05-23T02:54:34.292Z,14.90
2023-05-23T02:57:01.580Z,10.27
2023-05-23T02:59:28.999Z,10.55
2023-05-23T03:01:55.673Z,11.68
2023-05-23T03:06:48.088Z,9.93
2023-05-23T03:09:15.989Z,10.50
2023-05-23T03:11:43.103Z,11.65
2023-05-23T03:14:11.143Z,8.85
2023-05-23T03:16:38.085Z,14.35
2023-05-23T03:21:31.887Z,15.85
2023-05-23T03:23:58.605Z,21.92
2023-05-23T03:26:25.315Z,14.60
2023-05-23T03:28:52.238Z,13.32
2023-05-23T03:31:19.655Z,12.93
2023-05-23T03:33:46.427Z,12.52
2023-05-23T03:36:13.087Z,13.50
2023-05-23T03:38:39.747Z,20.73
2023-05-23T03:43:31.997Z,10.98
2023-05-23T03:45:59.746Z,15.82
2023-05-23T03:48:26.608Z,13.90
2023-05-23T03:50:53.349Z,15.73
2023-05-23T03:53:20.004Z,14.52
2023-05-23T03:55:46.636Z,22.50
2023-05-23T03:58:13.460Z,17.73
2023-05-23T04:00:40.122Z,16.77
2023-05-23T04:03:09.962Z,15.63
2023-05-23T04:05:36.715Z,15.48
2023-05-23T04:08:03.352Z,18.58
2023-05-23T04:10:31.256Z,16.23
2023-05-23T04:12:58.987Z,15.43
2023-05-23T04:17:51.679Z,17.10
2023-05-23T04:20:18.694Z,19.67
2023-05-23T04:25:10.920Z,15.30
2023-05-23T04:30:14.032Z,22.58
2023-05-23T04:32:43.505Z,20.17
2023-05-23T04:35:12.963Z,19.27
2023-05-23T04:37:42.620Z,18.90
2023-05-23T04:40:09.866Z,20.52
2023-05-23T04:45:38.054Z,23.20
2023-05-23T04:48:18.032Z,18.52
2023-05-23T04:50:47.929Z,20.88
2023-05-23T04:53:14.979Z,20.05
2023-05-23T04:55:42.034Z,17.85
2023-05-23T04:58:13.860Z,19.98
2023-05-23T05:00:40.696Z,21.67
2023-05-23T05:10:26.308Z,28.77
2023-05-23T05:12:53.613Z,23.80
2023-05-23T05:15:20.339Z,23.73
2023-05-23T05:17:49.729Z,22.65
2023-05-23T05:20:18.861Z,26.15
2023-05-23T05:22:46.001Z,23.05
2023-05-23T05:27:40.007Z,15.00
2023-05-23T05:30:10.329Z,31.63
2023-05-23T05:32:37.030Z,25.33
2023-05-23T05:35:04.717Z,27.48
2023-05-23T05:37:31.438Z,25.90
2023-05-23T05:39:59.257Z,23.17
2023-05-23T05:42:26.376Z,28.98
2023-05-23T05:44:53.096Z,31.00
2023-05-23T05:47:19.815Z,29.40
2023-05-23T05:49:46.968Z,19.77
2023-05-23T05:52:13.626Z,24.42
2023-05-23T05:57:05.800Z,21.83
2023-05-23T05:59:33.093Z,22.35
2023-05-23T06:01:59.982Z,22.10
2023-05-23T06:04:26.909Z,16.75
2023-05-23T06:06:54.091Z,20.77
2023-05-23T06:09:21.089Z,24.65
2023-05-23T06:11:47.836Z,23.38
2023-05-23T06:14:14.915Z,27.42
2023-05-23T06:19:10.136Z,25.23
2023-05-23T06:21:38.499Z,24.60
2023-05-23T06:26:33.724Z,26.65
2023-05-23T06:29:00.458Z,26.88
2023-05-23T06:36:19.974Z,23.10
2023-05-23T06:38:48.375Z,13.70
2023-05-23T06:41:15.071Z,22.80
2023-05-23T06:43:41.789Z,26.05
2023-05-23T06:51:52.087Z,16.10
2023-05-23T06:54:19.683Z,27.88
2023-05-23T06:56:46.729Z,22.08
2023-05-23T06:59:13.547Z,24.30
2023-05-23T07:01:40.645Z,30.25
2023-05-23T07:08:58.495Z,26.23
2023-05-23T07:11:26.800Z,22.55
2023-05-23T07:13:57.496Z,31.20
2023-05-23T07:16:50.362Z,19.35
2023-05-23T07:19:17.260Z,24.85
2023-05-23T07:21:47.352Z,26.92
2023-05-23T07:26:42.442Z,33.55
2023-05-23T07:29:09.517Z,31.55
2023-05-23T07:31:36.970Z,22.27
2023-05-23T07:34:03.903Z,22.40
2023-05-23T07:39:11.214Z,24.48
2023-05-23T07:41:38.103Z,31.23
2023-05-23T07:44:04.884Z,23.85
2023-05-23T07:46:31.678Z,23.38
2023-05-23T07:48:58.323Z,20.95
2023-05-23T07:53:50.591Z,26.63
2023-05-23T07:56:17.294Z,29.05
2023-05-23T07:58:44.177Z,23.10
2023-05-23T08:01:10.912Z,27.10
2023-05-23T08:03:56.408Z,24.10
2023-05-23T08:13:40.717Z,28.92
2023-05-23T08:21:19.046Z,22.27
2023-05-23T08:23:45.965Z,24.27
2023-05-23T08:26:12.896Z,31.67
2023-05-23T08:28:40.861Z,24.45
2023-05-23T08:31:07.701Z,29.83
2023-05-23T08:36:00.016Z,25.00
2023-05-23T08:38:27.384Z,28.48
2023-05-23T08:41:07.222Z,25.83
2023-05-23T08:43:34.057Z,17.63
2023-05-23T08:46:01.177Z,28.33
2023-05-23T08:48:28.516Z,25.80
2023-05-23T08:50:56.433Z,15.80
2023-05-23T08:53:24.898Z,19.88
2023-05-23T08:55:51.773Z,19.92
2023-05-23T08:58:21.069Z,23.67
2023-05-23T09:00:53.826Z,21.52
2023-05-23T09:03:21.348Z,16.95
2023-05-23T09:06:11.270Z,22.45
2023-05-23T09:08:38.691Z,23.88
2023-05-23T09:11:05.985Z,17.50
2023-05-23T09:16:00.276Z,23.63
2023-05-23T09:18:42.676Z,12.55
2023-05-23T09:23:36.070Z,22.17
2023-05-23T09:26:06.961Z,18.45
2023-05-23T09:28:34.211Z,20.27
2023-05-23T09:31:01.760Z,22.58
2023-05-23T09:36:08.804Z,25.10
2023-05-23T09:38:39.648Z,21.42
2023-05-23T09:48:33.689Z,26.05
2023-05-23T09:51:03.825Z,19.20
2023-05-23T09:55:56.953Z,19.27
2023-05-23T09:58:24.154Z,17.67
2023-05-23T10:00:53.275Z,13.20
2023-05-23T10:03:24.159Z,13.88
2023-05-23T10:05:53.387Z,19.90
2023-05-23T10:08:23.730Z,19.65
2023-05-23T10:10:50.366Z,24.60
2023-05-23T10:13:17.326Z,20.88
2023-05-23T10:15:44.075Z,21.50
2023-05-23T10:20:43.941Z,18.88
2023-05-23T10:23:10.905Z,17.38
2023-05-23T10:28:04.585Z,22.25
2023-05-23T10:30:31.607Z,16.17
2023-05-23T10:35:33.653Z,18.45
2023-05-23T10:40:58.023Z,16.27
2023-05-23T10:43:24.846Z,17.80
2023-05-23T10:45:52.242Z,12.82
2023-05-23T10:48:23.157Z,11.60
2023-05-23T10:55:57.728Z,16.90
2023-05-23T11:03:35.742Z,12.20
2023-05-23T11:06:06.120Z,20.80
2023-05-23T11:11:07.663Z,17.17
2023-05-23T11:16:37.063Z,12.88
2023-05-23T11:24:15.370Z,15.43
2023-05-23T11:26:53.520Z,17.95
2023-05-23T11:29:20.813Z,10.98
2023-05-23T11:31:47.549Z,21.45
2023-05-23T11:36:40.812Z,16.67
2023-05-23T11:39:07.796Z,16.10
2023-05-23T11:41:35.825Z,13.75
2023-05-23T11:44:10.981Z,18.42
2023-05-23T11:49:03.367Z,13.65
2023-05-23T11:51:30.191Z,16.17
2023-05-23T11:58:52.292Z,13.25
2023-05-23T12:01:19.109Z,13.55
2023-05-23T12:03:50.228Z,15.10
2023-05-23T12:06:20.243Z,18.38
2023-05-23T12:08:51.353Z,14.40
2023-05-23T12:11:18.905Z,13.30
2023-05-23T12:13:45.941Z,13.80
2023-05-23T12:16:14.056Z,6.53
2023-05-23T12:18:43.076Z,15.90
2023-05-23T12:23:36.163Z,15.65
2023-05-23T12:26:12.404Z,13.45
2023-05-23T12:28:40.250Z,15.32
2023-05-23T12:31:11.008Z,15.23
2023-05-23T12:33:44.039Z,12.68
2023-05-23T12:36:11.756Z,21.15
2023-05-23T12:38:38.983Z,19.98
2023-05-23T12:41:09.594Z,16.67
2023-05-23T12:43:49.659Z,7.50
2023-05-23T12:46:16.375Z,13.48
2023-05-23T12:48:43.096Z,15.50
2023-05-23T12:51:09.789Z,15.82
2023-05-23T12:56:02.653Z,17.30
2023-05-23T12:58:31.442Z,11.63
2023-05-23T13:13:07.819Z,13.52
2023-05-23T13:18:00.340Z,11.88
2023-05-23T13:20:30.318Z,15.98
2023-05-23T13:25:27.006Z,20.67
2023-05-23T13:27:54.352Z,19.98
2023-05-23T13:32:47.803Z,10.73
2023-05-23T13:35:15.498Z,10.80
2023-05-23T13:37:42.214Z,20.02
2023-05-23T13:40:12.272Z,15.77
2023-05-23T13:42:38.960Z,16.60
2023-05-23T13:47:31.574Z,26.50
2023-05-23T13:49:58.476Z,12.43
2023-05-23T14:43:44.800Z,19.55
2023-05-23T14:56:00.194Z,13.20
2023-05-23T14:58:27.518Z,21.15
2023-05-23T15:00:55.311Z,21.50
2023-05-23T15:13:12.008Z,11.93
2023-05-23T15:15:43.900Z,25.10
2023-05-23T15:27:57.940Z,17.90
2023-05-23T15:30:30.893Z,23.75
2023-05-23T15:35:23.458Z,19.52
2023-05-23T15:37:55.643Z,21.80
2023-05-23T15:42:49.328Z,18.70
2023-05-23T15:45:17.037Z,16.88
2023-05-23T16:27:13.589Z,22.08
2023-05-23T16:29:41.029Z,20.88
2023-05-23T16:32:08.554Z,26.30
2023-05-23T16:51:40.614Z,13.02
2023-05-23T16:54:07.844Z,10.55
2023-05-23T16:59:01.269Z,15.73
2023-05-23T17:01:29.586Z,19.45
2023-05-23T17:06:22.317Z,14.77
2023-05-23T17:08:49.060Z,15.48
2023-05-23T17:11:15.815Z,16.10
2023-05-23T17:13:42.784Z,14.68
2023-05-23T17:16:09.495Z,17.13
2023-05-23T17:21:01.820Z,17.65
2023-05-23T17:23:28.578Z,15.02
2023-05-23T17:25:55.315Z,20.73
2023-05-23T17:28:22.729Z,13.25
2023-05-23T17:30:52.289Z,12.95
2023-05-23T17:40:36.406Z,18.85
2023-05-23T17:43:03.187Z,18.05
2023-05-23T17:45:32.183Z,20.58
2023-05-23T17:52:54.399Z,5.88
2023-05-23T18:19:48.350Z,19.48
2023-05-23T18:22:17.740Z,11.32
2023-05-23T19:04:08.889Z,12.07
2023-05-23T19:57:44.879Z,11.45
2023-05-23T20:00:15.953Z,9.52
2023-05-23T20:36:57.705Z,11.98
2023-05-23T20:39:24.460Z,6.68
2023-05-23T20:41:51.214Z,11.60
2023-05-23T20:44:18.514Z,7.78
2023-05-23T20:46:45.505Z,9.88
2023-05-23T20:49:12.276Z,10.10
2023-05-23T20:51:39.323Z,6.00
2023-05-23T20:54:06.521Z,9.27
2023-05-23T20:56:33.531Z,12.45
2023-05-23T20:59:03.335Z,9.85
2023-05-23T21:01:31.070Z,11.05
2023-05-23T21:03:57.943Z,6.90
2023-05-23T21:06:24.694Z,8.82
2023-05-23T21:08:51.405Z,10.82
2023-05-23T21:11:18.148Z,15.70
2023-05-23T21:13:44.948Z,13.43
2023-05-23T21:16:14.568Z,10.45
2023-05-23T21:21:07.076Z,9.70
2023-05-23T21:26:36.638Z,8.98
2023-05-23T21:29:03.433Z,8.35
2023-05-23T21:31:40.661Z,12.02
2023-05-23T21:41:26.099Z,6.90
2023-05-23T21:43:52.880Z,8.68
2023-05-23T21:46:19.896Z,7.68
2023-05-23T21:51:12.567Z,8.15
2023-05-23T21:53:39.305Z,6.72
2023-05-23T21:56:06.134Z,6.90
2023-05-23T21:58:33.014Z,8.60
2023-05-23T22:00:59.813Z,13.20
2023-05-23T22:03:26.684Z,6.20
2023-05-23T22:05:53.429Z,7.18
2023-05-23T22:08:20.041Z,5.88
2023-05-23T22:13:14.546Z,9.90
2023-05-23T22:15:41.296Z,11.68
2023-05-23T22:18:08.074Z,7.35
2023-05-23T22:20:38.905Z,9.65
2023-05-23T22:23:06.349Z,10.85
2023-05-23T22:39:02.216Z,12.18
2023-05-23T22:41:28.964Z,15.20
2023-05-23T22:43:55.924Z,9.50
2023-05-23T22:46:22.721Z,7.28
2023-05-23T22:48:49.624Z,13.50
2023-05-23T22:53:41.974Z,10.43
2023-05-23T22:56:08.704Z,10.13
2023-05-23T23:01:01.094Z,12.23
2023-05-23T23:03:27.880Z,13.20
2023-05-23T23:15:36.889Z,12.77
2023-05-23T23:18:05.679Z,12.52
2023-05-23T23:20:33.092Z,14.48
2023-05-23T23:23:00.044Z,12.32
2023-05-23T23:25:27.003Z,11.00
2023-05-23T23:27:53.647Z,20.42
2023-05-23T23:30:20.538Z,14.52
2023-05-23T23:32:47.253Z,14.70
2023-05-23T23:35:14.360Z,16.08
2023-05-23T23:37:41.173Z,13.98
2023-05-23T23:40:08.819Z,16.67
2023-05-23T23:42:35.705Z,12.90
2023-05-23T23:45:02.507Z,15.52
2023-05-23T23:47:29.158Z,9.95
2023-05-23T23:49:55.919Z,10.32
2023-05-23T23:52:22.640Z,16.95
2023-05-23T23:54:49.288Z,13.05
